sensor_id;sensor_type;location;lat;lon;timestamp;pressure;altitude;pressure_sealevel;temperature;humidity
67545;BME280;54380;47.770;11.150;2023-01-29T00:01:21;95643.00;;;-2.38;60.84
67545;BME280;54380;47.770;11.150;2023-01-29T00:03:49;95636.34;;;-2.40;60.67
67545;BME280;54380;47.770;11.150;2023-01-29T00:06:16;95645.75;;;-2.39;61.17
67545;BME280;54380;47.770;11.150;2023-01-29T00:08:43;95641.88;;;-2.35;61.59
67545;BME280;54380;47.770;11.150;2023-01-29T00:11:11;95637.72;;;-2.28;61.55
67545;BME280;54380;47.770;11.150;2023-01-29T00:13:39;95647.78;;;-2.25;61.63
67545;BME280;54380;47.770;11.150;2023-01-29T00:16:06;95648.25;;;-2.22;62.02
67545;BME280;54380;47.770;11.150;2023-01-29T00:18:32;95648.31;;;-2.13;62.25
67545;BME280;54380;47.770;11.150;2023-01-29T00:20:59;95645.81;;;-2.05;63.74
67545;BME280;54380;47.770;11.150;2023-01-29T00:23:26;95643.88;;;-1.95;64.25
67545;BME280;54380;47.770;11.150;2023-01-29T00:25:52;95628.13;;;-1.84;65.08
67545;BME280;54380;47.770;11.150;2023-01-29T00:28:21;95629.31;;;-1.70;64.28
67545;BME280;54380;47.770;11.150;2023-01-29T00:30:48;95622.69;;;-1.64;64.08
67545;BME280;54380;47.770;11.150;2023-01-29T00:33:15;95626.41;;;-1.59;63.71
67545;BME280;54380;47.770;11.150;2023-01-29T00:35:41;95627.75;;;-1.55;63.12
67545;BME280;54380;47.770;11.150;2023-01-29T00:38:08;95629.34;;;-1.53;62.94
67545;BME280;54380;47.770;11.150;2023-01-29T00:40:38;95628.22;;;-1.51;63.24
67545;BME280;54380;47.770;11.150;2023-01-29T00:43:25;95629.56;;;-1.47;64.08
67545;BME280;54380;47.770;11.150;2023-01-29T00:46:10;95633.44;;;-1.43;64.42
67545;BME280;54380;47.770;11.150;2023-01-29T00:48:37;95647.69;;;-1.39;64.70
67545;BME280;54380;47.770;11.150;2023-01-29T00:51:04;95644.31;;;-1.31;64.66
67545;BME280;54380;47.770;11.150;2023-01-29T00:53:31;95645.47;;;-1.25;63.97
67545;BME280;54380;47.770;11.150;2023-01-29T00:55:58;95650.47;;;-1.24;63.88
67545;BME280;54380;47.770;11.150;2023-01-29T00:58:26;95652.78;;;-1.21;63.86
67545;BME280;54380;47.770;11.150;2023-01-29T01:01:00;95653.41;;;-1.19;63.47
67545;BME280;54380;47.770;11.150;2023-01-29T01:03:29;95654.72;;;-1.15;63.46
67545;BME280;54380;47.770;11.150;2023-01-29T01:06:03;95658.94;;;-1.14;63.21
67545;BME280;54380;47.770;11.150;2023-01-29T01:08:30;95653.59;;;-1.12;63.83
67545;BME280;54380;47.770;11.150;2023-01-29T01:11:18;95661.06;;;-1.09;64.13
67545;BME280;54380;47.770;11.150;2023-01-29T01:13:46;95663.84;;;-1.02;64.29
67545;BME280;54380;47.770;11.150;2023-01-29T01:16:16;95670.97;;;-0.96;64.06
67545;BME280;54380;47.770;11.150;2023-01-29T01:18:44;95672.44;;;-0.94;63.89
67545;BME280;54380;47.770;11.150;2023-01-29T01:21:10;95674.03;;;-0.93;63.80
67545;BME280;54380;47.770;11.150;2023-01-29T01:23:37;95676.31;;;-0.90;63.38
67545;BME280;54380;47.770;11.150;2023-01-29T01:26:08;95682.31;;;-0.89;63.32
67545;BME280;54380;47.770;11.150;2023-01-29T01:28:35;95677.28;;;-0.91;62.93
67545;BME280;54380;47.770;11.150;2023-01-29T01:31:08;95680.84;;;-0.92;62.65
67545;BME280;54380;47.770;11.150;2023-01-29T01:33:36;95680.00;;;-1.00;62.56
67545;BME280;54380;47.770;11.150;2023-01-29T01:36:04;95677.91;;;-1.05;62.34
67545;BME280;54380;47.770;11.150;2023-01-29T01:38:31;95673.84;;;-1.07;62.71
67545;BME280;54380;47.770;11.150;2023-01-29T01:40:58;95661.84;;;-1.08;63.40
67545;BME280;54380;47.770;11.150;2023-01-29T01:43:25;95667.69;;;-1.06;63.21
67545;BME280;54380;47.770;11.150;2023-01-29T01:45:51;95671.59;;;-1.02;63.72
67545;BME280;54380;47.770;11.150;2023-01-29T01:48:23;95672.22;;;-1.00;63.97
67545;BME280;54380;47.770;11.150;2023-01-29T01:50:52;95669.19;;;-0.96;63.98
67545;BME280;54380;47.770;11.150;2023-01-29T01:53:25;95674.69;;;-0.91;64.09
67545;BME280;54380;47.770;11.150;2023-01-29T01:55:57;95663.84;;;-0.86;63.97
67545;BME280;54380;47.770;11.150;2023-01-29T01:58:30;95666.94;;;-0.82;63.65
67545;BME280;54380;47.770;11.150;2023-01-29T02:00:59;95668.38;;;-0.80;63.56
67545;BME280;54380;47.770;11.150;2023-01-29T02:03:30;95673.09;;;-0.75;63.42
67545;BME280;54380;47.770;11.150;2023-01-29T02:06:19;95665.19;;;-0.74;63.81
67545;BME280;54380;47.770;11.150;2023-01-29T02:09:06;95672.31;;;-0.68;64.16
67545;BME280;54380;47.770;11.150;2023-01-29T02:11:53;95674.41;;;-0.63;64.06
67545;BME280;54380;47.770;11.150;2023-01-29T02:14:20;95667.25;;;-0.61;63.84
67545;BME280;54380;47.770;11.150;2023-01-29T02:16:47;95664.53;;;-0.59;63.93
67545;BME280;54380;47.770;11.150;2023-01-29T02:19:22;95667.78;;;-0.57;63.65
67545;BME280;54380;47.770;11.150;2023-01-29T02:22:05;95663.06;;;-0.54;64.15
67545;BME280;54380;47.770;11.150;2023-01-29T02:24:58;95657.53;;;-0.51;63.51
67545;BME280;54380;47.770;11.150;2023-01-29T02:27:55;95666.31;;;-0.52;63.30
67545;BME280;54380;47.770;11.150;2023-01-29T02:30:27;95663.72;;;-0.52;63.34
67545;BME280;54380;47.770;11.150;2023-01-29T02:32:59;95664.66;;;-0.53;63.62
67545;BME280;54380;47.770;11.150;2023-01-29T02:35:30;95673.09;;;-0.51;63.94
67545;BME280;54380;47.770;11.150;2023-01-29T02:38:08;95676.34;;;-0.49;63.97
67545;BME280;54380;47.770;11.150;2023-01-29T02:40:41;95674.09;;;-0.43;64.42
67545;BME280;54380;47.770;11.150;2023-01-29T02:43:20;95678.63;;;-0.37;64.15
67545;BME280;54380;47.770;11.150;2023-01-29T02:45:53;95676.69;;;-0.35;63.59
67545;BME280;54380;47.770;11.150;2023-01-29T02:48:29;95679.94;;;-0.33;63.55
67545;BME280;54380;47.770;11.150;2023-01-29T02:51:05;95675.88;;;-0.36;63.67
67545;BME280;54380;47.770;11.150;2023-01-29T02:53:37;95669.88;;;-0.36;63.88
67545;BME280;54380;47.770;11.150;2023-01-29T02:56:09;95667.44;;;-0.38;63.86
67545;BME280;54380;47.770;11.150;2023-01-29T02:58:41;95666.63;;;-0.38;64.04
67545;BME280;54380;47.770;11.150;2023-01-29T03:01:13;95667.28;;;-0.36;63.95
67545;BME280;54380;47.770;11.150;2023-01-29T03:03:43;95659.50;;;-0.36;63.77
67545;BME280;54380;47.770;11.150;2023-01-29T03:06:14;95660.31;;;-0.36;63.63
67545;BME280;54380;47.770;11.150;2023-01-29T03:08:52;95647.34;;;-0.36;63.68
67545;BME280;54380;47.770;11.150;2023-01-29T03:11:21;95650.75;;;-0.35;63.85
67545;BME280;54380;47.770;11.150;2023-01-29T03:13:53;95655.59;;;-0.32;64.14
67545;BME280;54380;47.770;11.150;2023-01-29T03:16:25;95654.47;;;-0.30;64.58
67545;BME280;54380;47.770;11.150;2023-01-29T03:18:59;95643.59;;;-0.25;64.51
67545;BME280;54380;47.770;11.150;2023-01-29T03:21:30;95646.34;;;-0.18;64.69
67545;BME280;54380;47.770;11.150;2023-01-29T03:24:25;95650.38;;;-0.16;64.36
67545;BME280;54380;47.770;11.150;2023-01-29T03:27:15;95629.81;;;-0.17;64.24
67545;BME280;54380;47.770;11.150;2023-01-29T03:30:07;95639.69;;;-0.13;64.86
67545;BME280;54380;47.770;11.150;2023-01-29T03:33:17;95631.41;;;-0.08;64.53
67545;BME280;54380;47.770;11.150;2023-01-29T03:35:50;95628.81;;;-0.08;63.89
67545;BME280;54380;47.770;11.150;2023-01-29T03:38:19;95641.78;;;-0.08;63.64
67545;BME280;54380;47.770;11.150;2023-01-29T03:40:49;95636.59;;;-0.08;64.21
67545;BME280;54380;47.770;11.150;2023-01-29T03:43:25;95637.88;;;-0.04;63.81
67545;BME280;54380;47.770;11.150;2023-01-29T03:46:04;95629.28;;;-0.05;63.62
67545;BME280;54380;47.770;11.150;2023-01-29T03:48:35;95625.91;;;-0.05;63.69
67545;BME280;54380;47.770;11.150;2023-01-29T03:51:08;95619.41;;;-0.09;63.44
67545;BME280;54380;47.770;11.150;2023-01-29T03:53:42;95622.50;;;-0.14;63.42
67545;BME280;54380;47.770;11.150;2023-01-29T03:56:21;95632.22;;;-0.16;63.61
67545;BME280;54380;47.770;11.150;2023-01-29T03:58:54;95623.31;;;-0.22;64.02
67545;BME280;54380;47.770;11.150;2023-01-29T04:01:38;95621.22;;;-0.26;63.99
67545;BME280;54380;47.770;11.150;2023-01-29T04:04:12;95630.47;;;-0.32;63.71
67545;BME280;54380;47.770;11.150;2023-01-29T04:06:42;95623.00;;;-0.35;63.95
67545;BME280;54380;47.770;11.150;2023-01-29T04:09:15;95618.47;;;-0.33;64.60
67545;BME280;54380;47.770;11.150;2023-01-29T04:11:49;95624.13;;;-0.29;64.64
67545;BME280;54380;47.770;11.150;2023-01-29T04:14:18;95617.81;;;-0.27;64.71
67545;BME280;54380;47.770;11.150;2023-01-29T04:16:50;95615.06;;;-0.25;64.70
67545;BME280;54380;47.770;11.150;2023-01-29T04:19:23;95615.06;;;-0.25;64.31
67545;BME280;54380;47.770;11.150;2023-01-29T04:21:59;95604.53;;;-0.24;64.55
67545;BME280;54380;47.770;11.150;2023-01-29T04:24:28;95601.75;;;-0.22;64.56
67545;BME280;54380;47.770;11.150;2023-01-29T04:27:05;95602.25;;;-0.18;64.10
67545;BME280;54380;47.770;11.150;2023-01-29T04:29:43;95603.84;;;-0.17;64.54
67545;BME280;54380;47.770;11.150;2023-01-29T04:32:21;95596.06;;;-0.17;64.14
67545;BME280;54380;47.770;11.150;2023-01-29T04:34:59;95586.50;;;-0.17;64.47
67545;BME280;54380;47.770;11.150;2023-01-29T04:37:34;95581.00;;;-0.22;64.33
67545;BME280;54380;47.770;11.150;2023-01-29T04:40:09;95589.25;;;-0.27;64.31
67545;BME280;54380;47.770;11.150;2023-01-29T04:42:43;95584.59;;;-0.31;64.36
67545;BME280;54380;47.770;11.150;2023-01-29T04:45:17;95583.28;;;-0.35;64.28
67545;BME280;54380;47.770;11.150;2023-01-29T04:47:51;95578.28;;;-0.37;64.34
67545;BME280;54380;47.770;11.150;2023-01-29T04:50:26;95579.25;;;-0.38;64.98
67545;BME280;54380;47.770;11.150;2023-01-29T04:53:00;95579.72;;;-0.34;65.14
67545;BME280;54380;47.770;11.150;2023-01-29T04:55:34;95577.44;;;-0.29;64.79
67545;BME280;54380;47.770;11.150;2023-01-29T04:58:06;95577.28;;;-0.28;65.07
67545;BME280;54380;47.770;11.150;2023-01-29T05:00:38;95580.03;;;-0.29;64.69
67545;BME280;54380;47.770;11.150;2023-01-29T05:03:08;95582.63;;;-0.29;64.56
67545;BME280;54380;47.770;11.150;2023-01-29T05:05:38;95588.31;;;-0.26;64.88
67545;BME280;54380;47.770;11.150;2023-01-29T05:08:07;95584.38;;;-0.22;65.20
67545;BME280;54380;47.770;11.150;2023-01-29T05:10:34;95590.88;;;-0.17;65.07
67545;BME280;54380;47.770;11.150;2023-01-29T05:13:03;95593.13;;;-0.14;65.11
67545;BME280;54380;47.770;11.150;2023-01-29T05:15:34;95586.66;;;-0.10;64.91
67545;BME280;54380;47.770;11.150;2023-01-29T05:18:03;95593.31;;;-0.08;65.24
67545;BME280;54380;47.770;11.150;2023-01-29T05:20:37;95596.84;;;-0.09;65.34
67545;BME280;54380;47.770;11.150;2023-01-29T05:23:08;95599.28;;;-0.07;65.05
67545;BME280;54380;47.770;11.150;2023-01-29T05:25:36;95596.69;;;-0.07;64.58
67545;BME280;54380;47.770;11.150;2023-01-29T05:28:02;95603.69;;;-0.08;64.32
67545;BME280;54380;47.770;11.150;2023-01-29T05:30:31;95605.78;;;-0.11;64.21
67545;BME280;54380;47.770;11.150;2023-01-29T05:32:58;95606.78;;;-0.12;64.64
67545;BME280;54380;47.770;11.150;2023-01-29T05:35:25;95610.16;;;-0.12;64.95
67545;BME280;54380;47.770;11.150;2023-01-29T05:37:55;95609.81;;;-0.09;64.71
67545;BME280;54380;47.770;11.150;2023-01-29T05:40:22;95620.22;;;-0.09;65.11
67545;BME280;54380;47.770;11.150;2023-01-29T05:42:49;95626.69;;;-0.05;64.91
67545;BME280;54380;47.770;11.150;2023-01-29T05:45:16;95618.72;;;-0.03;64.27
67545;BME280;54380;47.770;11.150;2023-01-29T05:47:44;95631.56;;;-0.10;64.65
67545;BME280;54380;47.770;11.150;2023-01-29T05:50:12;95645.03;;;-0.14;64.67
67545;BME280;54380;47.770;11.150;2023-01-29T05:52:40;95642.59;;;-0.16;65.09
67545;BME280;54380;47.770;11.150;2023-01-29T05:55:08;95646.66;;;-0.13;64.84
67545;BME280;54380;47.770;11.150;2023-01-29T05:57:35;95654.75;;;-0.08;65.31
67545;BME280;54380;47.770;11.150;2023-01-29T06:00:03;95661.41;;;-0.06;64.57
67545;BME280;54380;47.770;11.150;2023-01-29T06:02:37;95663.84;;;-0.04;64.71
67545;BME280;54380;47.770;11.150;2023-01-29T06:05:04;95676.16;;;-0.06;65.07
67545;BME280;54380;47.770;11.150;2023-01-29T06:07:32;95685.59;;;-0.05;65.48
67545;BME280;54380;47.770;11.150;2023-01-29T06:09:59;95683.31;;;0.00;65.43
67545;BME280;54380;47.770;11.150;2023-01-29T06:12:27;95665.16;;;0.00;64.92
67545;BME280;54380;47.770;11.150;2023-01-29T06:14:55;95664.66;;;-0.04;65.10
67545;BME280;54380;47.770;11.150;2023-01-29T06:17:22;95667.09;;;-0.02;65.05
67545;BME280;54380;47.770;11.150;2023-01-29T06:19:49;95667.88;;;-0.02;64.98
67545;BME280;54380;47.770;11.150;2023-01-29T06:22:16;95665.44;;;-0.03;64.89
67545;BME280;54380;47.770;11.150;2023-01-29T06:24:42;95671.28;;;-0.01;64.84
67545;BME280;54380;47.770;11.150;2023-01-29T06:27:10;95681.69;;;-0.01;64.70
67545;BME280;54380;47.770;11.150;2023-01-29T06:29:38;95681.03;;;-0.03;64.73
67545;BME280;54380;47.770;11.150;2023-01-29T06:32:05;95679.88;;;-0.01;64.55
67545;BME280;54380;47.770;11.150;2023-01-29T06:34:31;95673.88;;;-0.01;64.39
67545;BME280;54380;47.770;11.150;2023-01-29T06:36:58;95678.59;;;-0.05;64.15
67545;BME280;54380;47.770;11.150;2023-01-29T06:39:25;95685.09;;;-0.09;64.68
67545;BME280;54380;47.770;11.150;2023-01-29T06:41:51;95675.38;;;-0.15;64.63
67545;BME280;54380;47.770;11.150;2023-01-29T06:44:18;95673.59;;;-0.14;64.77
67545;BME280;54380;47.770;11.150;2023-01-29T06:46:46;95674.25;;;-0.12;64.37
67545;BME280;54380;47.770;11.150;2023-01-29T06:49:13;95670.66;;;-0.19;64.09
67545;BME280;54380;47.770;11.150;2023-01-29T06:51:40;95674.59;;;-0.24;64.19
67545;BME280;54380;47.770;11.150;2023-01-29T06:54:08;95674.72;;;-0.25;64.38
67545;BME280;54380;47.770;11.150;2023-01-29T06:56:34;95674.41;;;-0.22;64.26
67545;BME280;54380;47.770;11.150;2023-01-29T06:59:02;95669.53;;;-0.17;64.43
67545;BME280;54380;47.770;11.150;2023-01-29T07:01:29;95669.38;;;-0.15;64.61
67545;BME280;54380;47.770;11.150;2023-01-29T07:04:03;95664.00;;;-0.14;64.59
67545;BME280;54380;47.770;11.150;2023-01-29T07:06:30;95674.38;;;-0.14;64.09
67545;BME280;54380;47.770;11.150;2023-01-29T07:08:57;95667.59;;;-0.15;64.69
67545;BME280;54380;47.770;11.150;2023-01-29T07:11:24;95666.44;;;-0.12;64.96
67545;BME280;54380;47.770;11.150;2023-01-29T07:13:50;95670.31;;;-0.08;64.98
67545;BME280;54380;47.770;11.150;2023-01-29T07:16:17;95670.81;;;-0.05;64.54
67545;BME280;54380;47.770;11.150;2023-01-29T07:18:44;95659.94;;;0.00;63.92
67545;BME280;54380;47.770;11.150;2023-01-29T07:21:12;95661.72;;;-0.01;63.83
67545;BME280;54380;47.770;11.150;2023-01-29T07:23:39;95655.75;;;-0.09;63.21
67545;BME280;54380;47.770;11.150;2023-01-29T07:26:06;95659.81;;;-0.15;63.72
67545;BME280;54380;47.770;11.150;2023-01-29T07:28:35;95662.41;;;-0.15;64.61
67545;BME280;54380;47.770;11.150;2023-01-29T07:31:02;95668.72;;;-0.09;64.65
67545;BME280;54380;47.770;11.150;2023-01-29T07:33:29;95674.06;;;-0.03;63.99
67545;BME280;54380;47.770;11.150;2023-01-29T07:35:56;95679.53;;;0.03;64.12
67545;BME280;54380;47.770;11.150;2023-01-29T07:38:24;95664.63;;;0.05;64.23
67545;BME280;54380;47.770;11.150;2023-01-29T07:40:51;95668.53;;;0.09;63.77
67545;BME280;54380;47.770;11.150;2023-01-29T07:43:18;95662.66;;;0.15;63.73
67545;BME280;54380;47.770;11.150;2023-01-29T07:45:44;95655.34;;;0.27;63.30
67545;BME280;54380;47.770;11.150;2023-01-29T07:48:12;95637.91;;;0.43;63.64
67545;BME280;54380;47.770;11.150;2023-01-29T07:50:39;95646.91;;;0.64;63.49
67545;BME280;54380;47.770;11.150;2023-01-29T07:53:06;95649.38;;;0.88;63.75
67545;BME280;54380;47.770;11.150;2023-01-29T07:55:34;95647.75;;;1.19;63.43
67545;BME280;54380;47.770;11.150;2023-01-29T07:58:01;95652.06;;;1.49;63.34
67545;BME280;54380;47.770;11.150;2023-01-29T08:00:29;95642.28;;;1.74;62.78
67545;BME280;54380;47.770;11.150;2023-01-29T08:03:01;95643.22;;;1.96;62.09
67545;BME280;54380;47.770;11.150;2023-01-29T08:05:28;95644.47;;;2.15;61.87
67545;BME280;54380;47.770;11.150;2023-01-29T08:07:55;95642.16;;;2.35;61.66
67545;BME280;54380;47.770;11.150;2023-01-29T08:10:34;95626.97;;;2.54;61.01
67545;BME280;54380;47.770;11.150;2023-01-29T08:13:01;95625.94;;;2.70;60.42
67545;BME280;54380;47.770;11.150;2023-01-29T08:15:28;95633.56;;;2.86;60.07
67545;BME280;54380;47.770;11.150;2023-01-29T08:17:55;95621.03;;;2.96;58.92
67545;BME280;54380;47.770;11.150;2023-01-29T08:20:24;95618.94;;;3.06;58.76
67545;BME280;54380;47.770;11.150;2023-01-29T08:22:58;95627.69;;;3.20;58.72
67545;BME280;54380;47.770;11.150;2023-01-29T08:25:25;95630.06;;;3.37;59.09
67545;BME280;54380;47.770;11.150;2023-01-29T08:27:55;95629.63;;;3.55;58.83
67545;BME280;54380;47.770;11.150;2023-01-29T08:30:21;95627.19;;;3.74;58.96
67545;BME280;54380;47.770;11.150;2023-01-29T08:32:48;95618.69;;;3.94;57.77
67545;BME280;54380;47.770;11.150;2023-01-29T08:35:15;95623.75;;;4.02;57.18
67545;BME280;54380;47.770;11.150;2023-01-29T08:37:42;95619.25;;;4.17;57.38
67545;BME280;54380;47.770;11.150;2023-01-29T08:40:09;95620.34;;;4.36;57.33
67545;BME280;54380;47.770;11.150;2023-01-29T08:42:38;95620.63;;;4.55;56.83
67545;BME280;54380;47.770;11.150;2023-01-29T08:45:09;95621.72;;;4.74;56.38
67545;BME280;54380;47.770;11.150;2023-01-29T08:47:36;95614.13;;;4.86;55.06
67545;BME280;54380;47.770;11.150;2023-01-29T08:50:03;95612.94;;;4.95;54.41
67545;BME280;54380;47.770;11.150;2023-01-29T08:52:30;95610.97;;;5.03;54.88
67545;BME280;54380;47.770;11.150;2023-01-29T08:54:57;95612.59;;;5.18;54.03
67545;BME280;54380;47.770;11.150;2023-01-29T08:57:23;95618.06;;;5.36;54.88
67545;BME280;54380;47.770;11.150;2023-01-29T08:59:50;95620.31;;;5.53;54.72
67545;BME280;54380;47.770;11.150;2023-01-29T09:02:18;95629.22;;;5.71;54.49
67545;BME280;54380;47.770;11.150;2023-01-29T09:04:45;95634.44;;;5.91;54.62
67545;BME280;54380;47.770;11.150;2023-01-29T09:07:11;95636.28;;;6.11;54.42
67545;BME280;54380;47.770;11.150;2023-01-29T09:09:40;95633.00;;;6.29;52.74
67545;BME280;54380;47.770;11.150;2023-01-29T09:12:06;95638.84;;;6.37;51.91
67545;BME280;54380;47.770;11.150;2023-01-29T09:14:33;95641.88;;;6.48;51.93
67545;BME280;54380;47.770;11.150;2023-01-29T09:17:00;95650.28;;;6.63;51.70
67545;BME280;54380;47.770;11.150;2023-01-29T09:19:28;95647.59;;;6.76;51.91
67545;BME280;54380;47.770;11.150;2023-01-29T09:21:57;95652.00;;;6.89;51.81
67545;BME280;54380;47.770;11.150;2023-01-29T09:24:23;95655.56;;;7.08;52.04
67545;BME280;54380;47.770;11.150;2023-01-29T09:26:50;95648.41;;;7.29;52.17
67545;BME280;54380;47.770;11.150;2023-01-29T09:29:16;95646.09;;;7.45;51.69
67545;BME280;54380;47.770;11.150;2023-01-29T09:31:43;95652.88;;;7.60;51.46
67545;BME280;54380;47.770;11.150;2023-01-29T09:34:10;95663.28;;;7.73;51.17
67545;BME280;54380;47.770;11.150;2023-01-29T09:36:38;95666.03;;;7.85;50.39
67545;BME280;54380;47.770;11.150;2023-01-29T09:39:05;95673.06;;;7.91;50.29
67545;BME280;54380;47.770;11.150;2023-01-29T09:41:42;95673.84;;;7.98;49.55
67545;BME280;54380;47.770;11.150;2023-01-29T09:44:19;95675.59;;;8.04;49.28
67545;BME280;54380;47.770;11.150;2023-01-29T09:46:50;95677.84;;;8.01;48.35
67545;BME280;54380;47.770;11.150;2023-01-29T09:49:20;95672.81;;;7.99;49.23
67545;BME280;54380;47.770;11.150;2023-01-29T09:51:54;95678.97;;;8.11;49.53
67545;BME280;54380;47.770;11.150;2023-01-29T09:54:26;95688.94;;;8.28;48.90
67545;BME280;54380;47.770;11.150;2023-01-29T09:56:56;95686.84;;;8.43;48.43
67545;BME280;54380;47.770;11.150;2023-01-29T09:59:25;95680.94;;;8.48;48.04
67545;BME280;54380;47.770;11.150;2023-01-29T10:02:05;95682.75;;;8.66;48.13
67545;BME280;54380;47.770;11.150;2023-01-29T10:04:43;95689.84;;;8.84;47.82
67545;BME280;54380;47.770;11.150;2023-01-29T10:07:44;95691.41;;;8.91;47.87
67545;BME280;54380;47.770;11.150;2023-01-29T10:10:26;95696.22;;;8.94;46.69
67545;BME280;54380;47.770;11.150;2023-01-29T10:13:00;95693.75;;;8.99;46.67
67545;BME280;54380;47.770;11.150;2023-01-29T10:15:41;95694.69;;;9.05;46.86
67545;BME280;54380;47.770;11.150;2023-01-29T10:18:29;95682.84;;;9.14;46.74
67545;BME280;54380;47.770;11.150;2023-01-29T10:21:10;95688.59;;;9.23;46.08
67545;BME280;54380;47.770;11.150;2023-01-29T10:23:46;95687.94;;;9.28;45.35
67545;BME280;54380;47.770;11.150;2023-01-29T10:26:16;95685.81;;;9.18;46.03
67545;BME280;54380;47.770;11.150;2023-01-29T10:28:48;95687.81;;;9.22;46.72
67545;BME280;54380;47.770;11.150;2023-01-29T10:31:18;95685.44;;;9.33;46.10
67545;BME280;54380;47.770;11.150;2023-01-29T10:33:49;95694.28;;;9.38;45.42
67545;BME280;54380;47.770;11.150;2023-01-29T10:36:33;95690.63;;;9.39;45.17
67545;BME280;54380;47.770;11.150;2023-01-29T10:39:03;95688.56;;;9.41;45.94
67545;BME280;54380;47.770;11.150;2023-01-29T10:41:51;95682.53;;;9.53;45.81
67545;BME280;54380;47.770;11.150;2023-01-29T10:44:28;95676.28;;;9.65;45.83
67545;BME280;54380;47.770;11.150;2023-01-29T10:47:08;95676.69;;;9.81;45.66
67545;BME280;54380;47.770;11.150;2023-01-29T10:49:49;95671.78;;;9.96;45.63
67545;BME280;54380;47.770;11.150;2023-01-29T10:52:31;95676.94;;;10.03;45.29
67545;BME280;54380;47.770;11.150;2023-01-29T10:55:11;95670.06;;;10.14;44.77
67545;BME280;54380;47.770;11.150;2023-01-29T10:57:53;95671.06;;;10.31;44.72
67545;BME280;54380;47.770;11.150;2023-01-29T11:00:26;95675.84;;;10.22;43.68
67545;BME280;54380;47.770;11.150;2023-01-29T11:02:56;95668.44;;;9.77;43.31
67545;BME280;54380;47.770;11.150;2023-01-29T11:05:26;95668.84;;;9.32;43.26
67545;BME280;54380;47.770;11.150;2023-01-29T11:08:02;95664.13;;;9.04;44.64
67545;BME280;54380;47.770;11.150;2023-01-29T11:10:37;95662.28;;;9.05;44.33
67545;BME280;54380;47.770;11.150;2023-01-29T11:13:11;95665.56;;;9.18;44.61
67545;BME280;54380;47.770;11.150;2023-01-29T11:15:39;95661.63;;;9.39;45.30
67545;BME280;54380;47.770;11.150;2023-01-29T11:18:07;95656.50;;;9.44;44.00
67545;BME280;54380;47.770;11.150;2023-01-29T11:20:44;95648.53;;;9.02;43.79
67545;BME280;54380;47.770;11.150;2023-01-29T11:23:25;95652.94;;;8.53;43.63
67545;BME280;54380;47.770;11.150;2023-01-29T11:25:55;95651.75;;;7.99;43.91
67545;BME280;54380;47.770;11.150;2023-01-29T11:28:39;95650.91;;;7.48;45.08
67545;BME280;54380;47.770;11.150;2023-01-29T11:31:18;95656.16;;;7.10;45.18
67545;BME280;54380;47.770;11.150;2023-01-29T11:33:46;95649.25;;;6.77;45.77
67545;BME280;54380;47.770;11.150;2023-01-29T11:36:23;95653.53;;;6.58;46.48
67545;BME280;54380;47.770;11.150;2023-01-29T11:39:09;95650.56;;;6.28;46.86
67545;BME280;54380;47.770;11.150;2023-01-29T11:41:46;95643.72;;;6.07;47.01
67545;BME280;54380;47.770;11.150;2023-01-29T11:44:17;95651.34;;;5.89;47.66
67545;BME280;54380;47.770;11.150;2023-01-29T11:46:45;95648.53;;;5.77;48.09
67545;BME280;54380;47.770;11.150;2023-01-29T11:49:22;95645.50;;;5.67;47.91
67545;BME280;54380;47.770;11.150;2023-01-29T11:51:51;95642.88;;;5.54;47.76
67545;BME280;54380;47.770;11.150;2023-01-29T11:54:25;95637.84;;;5.45;48.17
67545;BME280;54380;47.770;11.150;2023-01-29T11:56:54;95640.03;;;5.42;48.37
67545;BME280;54380;47.770;11.150;2023-01-29T11:59:36;95640.25;;;5.40;48.07
67545;BME280;54380;47.770;11.150;2023-01-29T12:02:28;95638.41;;;5.34;48.13
67545;BME280;54380;47.770;11.150;2023-01-29T12:05:14;95634.78;;;5.22;48.89
67545;BME280;54380;47.770;11.150;2023-01-29T12:07:57;95632.75;;;5.17;49.13
67545;BME280;54380;47.770;11.150;2023-01-29T12:10:35;95622.28;;;5.17;48.52
67545;BME280;54380;47.770;11.150;2023-01-29T12:22:52;95567.91;;;5.13;47.27
67545;BME280;54380;47.770;11.150;2023-01-29T12:25:37;95562.25;;;5.02;48.70
67545;BME280;54380;47.770;11.150;2023-01-29T12:28:40;95563.63;;;4.85;49.49
67545;BME280;54380;47.770;11.150;2023-01-29T12:31:27;95558.59;;;4.77;48.99
67545;BME280;54380;47.770;11.150;2023-01-29T12:34:14;95548.13;;;4.77;49.25
67545;BME280;54380;47.770;11.150;2023-01-29T12:37:03;95537.63;;;4.70;48.52
67545;BME280;54380;47.770;11.150;2023-01-29T13:05:33;95535.81;;;4.64;50.40
67545;BME280;54380;47.770;11.150;2023-01-29T13:08:19;95535.19;;;4.62;50.80
67545;BME280;54380;47.770;11.150;2023-01-29T13:11:06;95536.22;;;4.68;51.06
67545;BME280;54380;47.770;11.150;2023-01-29T13:14:05;95531.19;;;4.73;50.93
67545;BME280;54380;47.770;11.150;2023-01-29T13:16:40;95532.44;;;4.77;50.33
67545;BME280;54380;47.770;11.150;2023-01-29T13:19:19;95525.34;;;4.71;50.67
67545;BME280;54380;47.770;11.150;2023-01-29T13:21:53;95517.72;;;4.69;50.95
67545;BME280;54380;47.770;11.150;2023-01-29T13:24:38;95531.19;;;4.73;51.17
67545;BME280;54380;47.770;11.150;2023-01-29T13:27:24;95526.41;;;4.83;50.53
67545;BME280;54380;47.770;11.150;2023-01-29T13:30:07;95522.78;;;4.91;50.70
67545;BME280;54380;47.770;11.150;2023-01-29T13:32:50;95520.19;;;4.91;50.55
67545;BME280;54380;47.770;11.150;2023-01-29T13:35:18;95520.19;;;4.91;51.12
67545;BME280;54380;47.770;11.150;2023-01-29T13:41:04;95516.16;;;4.88;50.14
67545;BME280;54380;47.770;11.150;2023-01-29T13:43:48;95514.91;;;4.84;50.75
67545;BME280;54380;47.770;11.150;2023-01-29T13:46:30;95505.88;;;4.87;50.73
67545;BME280;54380;47.770;11.150;2023-01-29T13:49:25;95494.22;;;4.89;50.58
67545;BME280;54380;47.770;11.150;2023-01-29T13:54:52;95478.72;;;4.81;51.15
67545;BME280;54380;47.770;11.150;2023-01-29T14:22:23;95469.41;;;4.45;51.55
67545;BME280;54380;47.770;11.150;2023-01-29T14:24:54;95470.78;;;4.41;51.27
67545;BME280;54380;47.770;11.150;2023-01-29T14:27:21;95467.34;;;4.34;51.79
67545;BME280;54380;47.770;11.150;2023-01-29T14:29:51;95466.53;;;4.27;52.22